AirNav   Air Wisconsin pilot careers
 
 758 users online  

8N2 Skydive Chicago Airport
Ottawa, Illinois, USA

GOING TO OTTAWA?


FAA INFORMATION EFFECTIVE 09 NOVEMBER 2017

Location

FAA Identifier: 8N2
Lat/Long: 41-23-59.2000N / 088-47-38.1000W
41-23.986667N / 088-47.635000W
41.3997778 / -88.7939167
(estimated)
Elevation: 616 ft. / 188 m (estimated)
Variation: 01W (1995)
From city: 4 miles NE of OTTAWA, IL
Time zone: UTC -6 (UTC -5 during Daylight Saving Time)
Zip code: 61350

Airport Operations

Airport use: Open to the public
Activation date: 06/1998
Control tower: no
ARTCC: CHICAGO CENTER
FSS: KANKAKEE FLIGHT SERVICE STATION
NOTAMs facility: IKK (NOTAM-D service available)
Attendance: 0800-DUSK
Pattern altitude: 1416 ft. MSL
Wind indicator: lighted
Segmented circle: no
Lights: ACTVT LIRL RY 03/21 - 122.725
Landing fee: yes

Airport Communications

CTAF/UNICOM: 122.725
WX AWOS-3 at VYS (16 nm W): 120.025 (815-223-8442)
WX AWOS-3 at C09 (17 nm E): 118.175 (815-941-1815)

Nearby radio navigation aids

VOR radial/distance  VOR name  Freq  Var
JOTr246/23.1JOLIET VORTAC112.3002E
PNTr353/34.8PONTIAC VOR/DME109.6003E
DPAr212/35.5DUPAGE VOR/DME108.4002E
BDFr068/38.6BRADFORD VORTAC114.7000E

Airport Services

Parking: hangars and tiedowns

Runway Information

Runway 3/21

Dimensions: 4522 x 50 ft. / 1378 x 15 m
Surface: asphalt, in good condition
Weight bearing capacity: 
Single wheel: 12.5
Runway edge lights: low intensity
RUNWAY 3  RUNWAY 21
Latitude: 41-23.674197N41-24.300053N
Longitude: 088-47.902833W088-47.366890W
Elevation: 615.5 ft.611.3 ft.
Traffic pattern: leftright
Runway heading: 034 magnetic, 033 true214 magnetic, 213 true
Markings: basic, in fair conditionbasic, in fair condition

Airport Ownership and Management from official FAA records

Ownership: Privately-owned
Owner: OTTAWA AIRPORT INC
3215 E. 1969TH RD
OTTAWA, IL 61350
Phone 815-433-0000
Manager: JASON ROCKFORD
3215 E. 1969TH RD
OTTAWA, IL 61350
Phone 815-433-0000

Airport Operational Statistics

Aircraft based on the field: 4
Single engine airplanes: 2
Multi engine airplanes: 2
    
Aircraft operations: avg 27/day *
80% local general aviation
20% transient general aviation
* for 12-month period ending 31 December 2015

Additional Remarks

A58-21 6 FT SHRUB 67 FT FM RY END.
A58-03 7 FT CROPS 68 FT FROM RY END
268 FT CELLULAR TOWER 1/2 MI WSW OF RY 03.
FOR NOISE ABATEMENT FLY WIDE PATTERN RY 03.
EXTENSIVE PARACHUTE ACTVTY ON & INVOF ARPT.

Instrument Procedures

There are no published instrument procedures at 8N2.

Some nearby airports with instrument procedures:

KVYS - Illinois Valley Regional Airport-Walter A Duncan Field (16 nm W)
C09 - Morris Municipal Airport-James R. Washburn Field (17 nm E)
KARR - Aurora Municipal Airport (27 nm NE)
KPNT - Pontiac Municipal Airport (30 nm S)
KRPJ - Rochelle Municipal Airport-Koritz Field (32 nm NW)
 
Loc | Ops | Rwys | IFR | FBO | Links
Com | Nav | Svcs | Stats | Notes


 
Area around 8N2 (Skydive Chicago Airport)
 
Road maps at: MapQuest Bing Google
 
Aerial photo
WARNING: Photo may not be current or correct
Aerial photo of 8N2 (Skydive Chicago Airport)
Do you have a better or more recent aerial photo of Skydive Chicago Airport that you would like to share? If so, please send us your photo.

 
Sectional chart

 
Airport distance calculator
Flying to Skydive Chicago Airport? Find the distance to fly.

From to 8N2

Sunrise and sunset
Times for 19-Nov-2017
 Local
(UTC-6)
 Zulu
(UTC)
Morning civil twilight06:1912:19
Sunrise06:4912:49
Sunset16:3222:32
Evening civil twilight17:0223:02

Current date and time
Zulu (UTC)  19-Nov-2017 14:07:23
Local (UTC-6)  19-Nov-2017 08:07:23
 
METAR
KVYS 
16nm W 
191355Z AUTO 29011KT 10SM CLR M04/M08 A3008 RMK AO2 T10431078
KC09 
17nm E 
191355Z AUTO 30013G19KT 10SM CLR M02/M06 A3004 RMK AO2 T10191056
KARR 
26nm NE 
191352Z 29017KT 8SM FEW029 M03/M06 A3003 RMK AO2 SLP175 T10281061
KJOT 
29nm E 
191355Z AUTO 29009KT 10SM BKN029 M01/M05 A3004 RMK AO2 T10091052
KPNT 
30nm S 
191355Z AUTO 29016G19KT 10SM OVC021 M02/M04 A3008 RMK AO2 T10231041
KRPJ 
31nm NW 
191355Z AUTO 30011G17KT 10SM CLR M04/M08 A3005 RMK AO2 T10401082
KDKB 
32nm N 
191355Z AUTO 30015G20KT 10SM CLR M03/M07 A3003 RMK AO2 T10351066
TAF
KDPA 
39nm NE 
191120Z 1912/2012 30012G18KT P6SM BKN030 FM191400 29012G18KT P6SM SCT200 FM192300 23008KT P6SM SCT150
NOTAMs
Click for the latest NOTAMs
NOTAMs are issued by the DoD/FAA and will open in a separate window not controlled by AirNav.

 

 
 

Would you like to see your business listed on this page?

 If your business provides an interesting product or service to pilots, flight crews, aircraft, or users of the Skydive Chicago Airport, you should consider listing it here.  To start the listing process, click on the button below
 
Add a business
 

Other Pages about Skydive Chicago Airport

Update a link
 
Copyright © AirNav, LLC. All rights reserved. Privacy Policy  Contact